Time;durP1;ratioP1;P1;durP2;ratioP2;P2;SDS_P1;SDS_P2;PMS_P1;PMS_P2;Temp;Humidity;BMP_temperature;BMP_pressure;BME280_temperature;BME280_humidity;BME280_pressure;Samples;Min_cycle;Max_cycle;Signal;HPM_P1;HPM_P2
2021/09/14 00:05:01;;;;;;;;;;;17.70;99.90;;;16.59;100.00;95762.19;10536366;28;2035;-75
2021/09/14 00:10:04;;;;;;;;;;;17.60;99.90;;;16.66;100.00;95757.91;10533900;28;1988;-76
2021/09/14 00:15:06;;;;;;;;;;;17.60;99.90;;;16.57;100.00;95759.78;10535822;28;1922;-75
2021/09/14 00:20:09;;;;;;;;;;;17.60;99.90;;;16.52;100.00;95761.84;10519914;28;2156;-73
2021/09/14 00:25:12;;;;;;;;;;;17.50;99.90;;;16.40;100.00;95756.97;10523385;28;1916;-74
2021/09/14 00:30:15;;;;;;;;;;;17.50;99.90;;;16.47;100.00;95755.41;10534222;28;2043;-74
2021/09/14 00:35:18;;;;;;;;;;;17.40;99.90;;;16.52;100.00;95751.78;10526789;28;1810;-75
2021/09/14 00:40:21;;;;;;;;;;;17.50;99.90;;;16.55;100.00;95756.59;10539375;28;2078;-75
2021/09/14 00:45:23;;;;;;;;;;;17.50;99.90;;;16.53;100.00;95753.38;10526389;28;1814;-76
2021/09/14 00:50:26;;;;;;;;;;;17.40;99.90;;;16.58;100.00;95742.41;10525022;28;2198;-75
2021/09/14 00:55:29;;;;;;;;;;;17.50;99.90;;;16.56;100.00;95736.50;10518280;28;2234;-75
2021/09/14 01:00:32;;;;;;;;;;;17.50;99.90;;;16.47;100.00;95735.63;10519593;28;1995;-75
2021/09/14 01:05:35;;;;;;;;;;;17.50;99.90;;;16.48;100.00;95734.53;10516167;28;2005;-75
2021/09/14 01:10:38;;;;;;;;;;;17.40;99.90;;;16.45;100.00;95735.16;10517537;28;2117;-74
2021/09/14 01:15:52;;;;;;;;;;;17.50;99.90;;;16.45;100.00;95721.59;10515536;28;2094;-75
2021/09/14 01:20:55;;;;;;;;;;;17.40;99.90;;;16.47;100.00;95724.78;10520677;28;2074;-74
2021/09/14 01:25:58;;;;;;;;;;;17.40;99.90;;;16.46;100.00;95718.56;10512875;28;2031;-75
2021/09/14 01:31:21;;;;;;;;;;;17.40;99.90;;;16.41;100.00;95726.03;10521917;28;2233;-75
2021/09/14 01:36:24;;;;;;;;;;;17.30;99.90;;;16.40;100.00;95721.72;10519891;28;2023;-75
2021/09/14 01:41:27;;;;;;;;;;;17.40;99.90;;;16.33;100.00;95726.78;10520680;28;2264;-74
2021/09/14 01:46:29;;;;;;;;;;;17.30;99.90;;;16.26;100.00;95727.22;10510453;28;1988;-75
2021/09/14 01:51:32;;;;;;;;;;;17.30;99.90;;;16.36;100.00;95731.59;10519639;28;2099;-75
2021/09/14 01:56:35;;;;;;;;;;;17.30;99.90;;;16.34;100.00;95731.91;10512343;28;2126;-74
2021/09/14 02:01:40;;;;;;;;;;;17.30;99.90;;;16.18;100.00;95736.91;10527036;28;2087;-74
2021/09/14 02:07:11;;;;;;;;;;;17.30;99.90;;;16.03;100.00;95734.59;10523172;28;2185;-74
2021/09/14 02:39:14;;;;;;;;;;;16.90;99.90;;;15.87;100.00;95728.75;10444342;28;2181;-75
2021/09/14 02:44:30;;;;;;;;;;;16.90;99.90;;;15.84;100.00;95725.84;10526021;28;2129;-75
2021/09/14 03:00:14;;;;;;;;;;;16.80;99.90;;;16.11;100.00;95730.34;10523476;28;2282;-74
2021/09/14 03:05:17;;;;;;;;;;;17.00;99.90;;;16.09;99.76;95719.78;10515600;28;2228;-75
2021/09/14 03:10:20;;;;;;;;;;;17.10;99.90;;;16.04;100.00;95719.94;10525805;28;2140;-75
2021/09/14 03:15:23;;;;;;;;;;;17.00;99.90;;;15.89;100.00;95717.59;10520965;28;2141;-74
2021/09/14 03:20:26;;;;;;;;;;;16.90;99.90;;;15.97;100.00;95718.75;10525057;28;2110;-72
2021/09/14 03:25:28;;;;;;;;;;;16.90;99.90;;;16.08;99.96;95715.47;10518945;28;2113;-73
2021/09/14 03:30:31;;;;;;;;;;;17.00;99.90;;;16.03;99.97;95712.91;10529787;28;2311;-74
2021/09/14 03:35:34;;;;;;;;;;;17.00;99.90;;;15.82;100.00;95711.78;10525142;28;2131;-74
2021/09/14 03:40:39;;;;;;;;;;;17.00;99.90;;;15.70;100.00;95719.66;10522457;28;2171;-74
2021/09/14 03:45:42;;;;;;;;;;;16.80;99.90;;;15.77;100.00;95703.78;10519928;28;2231;-73
2021/09/14 03:50:47;;;;;;;;;;;16.80;99.90;;;15.60;100.00;95704.44;10516184;28;2109;-74
2021/09/14 03:55:50;;;;;;;;;;;16.70;99.90;;;15.53;100.00;95702.16;10521635;28;2146;-74
2021/09/14 04:00:53;;;;;;;;;;;16.60;99.90;;;15.51;100.00;95696.22;10524349;28;2219;-73
2021/09/14 04:06:10;;;;;;;;;;;16.50;99.90;;;15.53;100.00;95696.75;10520093;28;2579;-75
2021/09/14 04:11:13;;;;;;;;;;;16.50;99.90;;;15.53;100.00;95698.66;10522388;28;2539;-75
2021/09/14 04:16:16;;;;;;;;;;;16.50;99.90;;;15.52;100.00;95695.13;10519819;28;2117;-72
2021/09/14 04:21:18;;;;;;;;;;;16.50;99.90;;;15.47;100.00;95694.47;10521316;28;2117;-74
2021/09/14 04:26:21;;;;;;;;;;;16.50;99.90;;;15.42;100.00;95695.38;10521561;28;2148;-74
2021/09/14 04:31:24;;;;;;;;;;;16.50;99.90;;;15.35;100.00;95703.91;10525937;28;2154;-74
2021/09/14 04:36:27;;;;;;;;;;;16.40;99.90;;;15.53;100.00;95696.75;10541310;28;2131;-73
2021/09/14 04:41:30;;;;;;;;;;;16.40;99.90;;;15.51;100.00;95701.63;10526929;28;2117;-72
2021/09/14 04:46:32;;;;;;;;;;;16.50;99.90;;;15.59;100.00;95698.22;10520797;28;2076;-74
2021/09/14 04:51:35;;;;;;;;;;;16.50;99.90;;;15.51;100.00;95706.25;10513456;28;2138;-75
2021/09/14 04:56:38;;;;;;;;;;;16.60;99.90;;;15.49;100.00;95712.00;10518308;28;2157;-73
2021/09/14 05:01:41;;;;;;;;;;;16.50;99.90;;;15.35;100.00;95712.03;10529524;28;2228;-73
2021/09/14 05:06:44;;;;;;;;;;;16.40;99.90;;;15.53;100.00;95710.28;10506476;28;2255;-70
2021/09/14 05:11:47;;;;;;;;;;;16.40;99.90;;;15.49;100.00;95703.06;10520983;28;1997;-72
2021/09/14 05:16:50;;;;;;;;;;;16.50;99.90;;;15.55;100.00;95701.84;10519707;28;2217;-73
2021/09/14 05:21:53;;;;;;;;;;;16.50;99.90;;;15.75;98.95;95704.09;10520588;28;2090;-74
2021/09/14 05:26:56;;;;;;;;;;;16.60;99.90;;;15.75;99.20;95706.00;10515993;28;2132;-75
2021/09/14 05:31:58;;;;;;;;;;;16.70;99.90;;;15.95;97.05;95705.50;10522110;28;2211;-75
2021/09/14 05:37:01;;;;;;;;;;;16.80;99.90;;;15.99;96.96;95709.22;10523825;28;2059;-74
2021/09/14 05:42:04;;;;;;;;;;;16.90;99.90;;;16.18;96.26;95720.66;10526099;28;2173;-74
2021/09/14 05:47:07;;;;;;;;;;;17.00;99.90;;;16.14;96.12;95710.72;10526145;28;2165;-74
2021/09/14 05:52:10;;;;;;;;;;;17.10;99.90;;;16.24;95.78;95706.97;10519845;28;2015;-75
2021/09/14 05:57:13;;;;;;;;;;;17.10;99.90;;;16.37;95.00;95709.59;10533098;28;2074;-74
2021/09/14 06:02:16;;;;;;;;;;;17.20;99.90;;;16.63;94.02;95709.69;10538372;28;2133;-76
2021/09/14 06:07:19;;;;;;;;;;;17.40;99.90;;;16.81;92.43;95715.22;10527511;28;2059;-75
2021/09/14 06:12:22;;;;;;;;;;;17.60;99.90;;;16.98;92.31;95715.25;10520712;28;2108;-75
2021/09/14 06:17:25;;;;;;;;;;;17.80;99.90;;;17.24;89.26;95713.44;10530029;28;2484;-75
2021/09/14 06:22:28;;;;;;;;;;;17.90;99.90;;;17.43;88.84;95715.84;10521787;28;2069;-75
2021/09/14 06:27:31;;;;;;;;;;;18.10;99.90;;;17.47;88.28;95719.50;10523962;28;1984;-74
2021/09/14 06:32:34;;;;;;;;;;;18.30;99.90;;;17.65;87.92;95724.97;10521298;28;2289;-74
2021/09/14 06:37:37;;;;;;;;;;;18.40;99.90;;;17.95;85.53;95720.50;10530751;28;1960;-77
2021/09/14 06:42:39;;;;;;;;;;;18.60;99.90;;;18.25;83.93;95722.19;10522950;28;2130;-72
2021/09/14 06:47:42;;;;;;;;;;;18.80;99.90;;;18.44;83.18;95731.91;10526541;28;2003;-71
2021/09/14 06:52:48;;;;;;;;;;;19.10;99.90;;;18.61;82.31;95734.59;10521126;28;2028;-75
2021/09/14 06:57:51;;;;;;;;;;;19.20;99.90;;;18.72;81.45;95727.72;10510088;28;2106;-78
2021/09/14 07:02:56;;;;;;;;;;;19.40;99.90;;;19.02;79.66;95731.25;10509403;28;2109;-73
2021/09/14 07:07:59;;;;;;;;;;;19.60;99.90;;;19.17;79.13;95724.44;10521890;28;2023;-75
2021/09/14 07:13:02;;;;;;;;;;;19.80;99.90;;;19.40;76.88;95716.75;10528769;28;2062;-76
2021/09/14 07:18:05;;;;;;;;;;;20.00;99.90;;;19.39;76.95;95723.34;10524802;28;1891;-72
2021/09/14 07:23:07;;;;;;;;;;;20.10;99.90;;;19.51;77.07;95726.13;10529648;28;2039;-74
2021/09/14 07:28:10;;;;;;;;;;;20.20;99.90;;;19.66;76.08;95722.88;10530822;28;1929;-74
2021/09/14 07:33:13;;;;;;;;;;;20.30;99.90;;;19.93;73.81;95721.53;10529179;28;2027;-73
2021/09/14 07:38:16;;;;;;;;;;;20.50;99.90;;;19.89;74.55;95726.03;10532157;28;1910;-74
2021/09/14 07:43:19;;;;;;;;;;;20.60;99.90;;;20.23;72.80;95729.56;10521792;28;2078;-73
2021/09/14 07:48:22;;;;;;;;;;;20.80;99.90;;;20.25;73.48;95727.31;10524435;28;2083;-75
2021/09/14 07:53:25;;;;;;;;;;;20.90;99.90;;;20.15;74.72;95722.28;10518337;28;2039;-74
2021/09/14 07:58:28;;;;;;;;;;;20.90;99.90;;;19.97;75.59;95732.53;10522843;28;2058;-74
2021/09/14 08:03:31;;;;;;;;;;;20.90;99.90;;;20.26;74.55;95739.81;10527104;28;2099;-72
2021/09/14 08:08:34;;;;;;;;;;;21.00;99.90;;;20.50;72.76;95734.47;10521568;28;1991;-72
2021/09/14 08:13:37;;;;;;;;;;;21.20;99.90;;;20.86;71.71;95745.78;10513761;28;2166;-74
2021/09/14 08:18:39;;;;;;;;;;;21.40;99.90;;;21.24;69.68;95734.53;10522687;28;1987;-74
2021/09/14 08:23:42;;;;;;;;;;;21.60;99.90;;;21.08;70.32;95736.38;10518641;28;1924;-74
2021/09/14 08:28:45;;;;;;;;;;;21.80;99.90;;;21.40;68.80;95738.19;10512901;28;2051;-73
2021/09/14 08:33:48;;;;;;;;;;;22.00;99.90;;;21.66;68.24;95734.28;10513330;28;2075;-74
2021/09/14 08:38:51;;;;;;;;;;;22.10;99.90;;;21.60;67.78;95731.00;10524469;28;2150;-74
2021/09/14 08:43:54;;;;;;;;;;;22.30;99.90;;;21.52;67.69;95732.72;10521693;28;2075;-75
2021/09/14 08:48:58;;;;;;;;;;;22.30;99.90;;;21.91;66.64;95735.03;10518678;28;1905;-75
2021/09/14 08:54:01;;;;;;;;;;;22.40;99.90;;;21.84;67.72;95730.13;10520948;28;2094;-74
2021/09/14 08:59:03;;;;;;;;;;;22.50;99.90;;;21.86;66.18;95739.56;10525525;28;2098;-73
2021/09/14 09:04:07;;;;;;;;;;;22.80;99.90;;;22.38;64.48;95733.25;10520786;28;2066;-73
2021/09/14 09:09:09;;;;;;;;;;;22.90;99.90;;;22.67;64.04;95725.78;10522928;28;1984;-75
2021/09/14 09:14:12;;;;;;;;;;;23.20;99.90;;;22.27;64.43;95731.38;10516952;28;2090;-72
2021/09/14 09:19:19;;;;;;;;;;;23.20;99.90;;;22.71;63.19;95728.59;10522863;28;1841;-74
2021/09/14 09:24:21;;;;;;;;;;;23.30;99.90;;;22.63;64.64;95733.09;10511774;28;2040;-74
2021/09/14 09:29:24;;;;;;;;;;;23.30;99.90;;;22.92;61.97;95724.50;10519027;28;1985;-73
2021/09/14 09:34:27;;;;;;;;;;;23.50;99.90;;;22.78;64.07;95723.34;10516525;28;2051;-73
2021/09/14 09:39:30;;;;;;;;;;;23.60;99.90;;;23.33;62.19;95719.59;10520960;28;1984;-74
2021/09/14 09:44:34;;;;;;;;;;;23.80;99.90;;;23.37;62.24;95716.94;10515221;28;2087;-74
2021/09/14 09:49:37;;;;;;;;;;;24.10;99.90;;;23.26;63.17;95721.38;10516785;28;2055;-73
2021/09/14 09:54:39;;;;;;;;;;;23.90;99.90;;;23.45;61.97;95713.19;10516970;28;2054;-75
2021/09/14 09:59:42;;;;;;;;;;;24.10;99.90;;;23.24;62.35;95707.22;10515829;28;2140;-74
2021/09/14 10:04:45;;;;;;;;;;;23.90;99.90;;;23.53;60.33;95708.66;10512020;28;2029;-74
2021/09/14 10:09:48;;;;;;;;;;;24.10;99.90;;;23.32;60.36;95711.72;10522799;28;2090;-75
2021/09/14 10:14:51;;;;;;;;;;;24.20;99.90;;;23.32;58.01;95708.97;10521335;28;1991;-74
2021/09/14 10:19:54;;;;;;;;;;;24.20;99.90;;;23.68;56.81;95702.38;10525030;28;2038;-75
2021/09/14 10:24:58;;;;;;;;;;;24.30;99.90;;;23.77;55.67;95691.97;10518892;28;2293;-75
2021/09/14 10:30:00;;;;;;;;;;;24.50;99.90;;;23.94;56.08;95696.25;10535660;28;2098;-75
2021/09/14 10:35:04;;;;;;;;;;;24.50;99.90;;;24.06;56.12;95682.38;10528425;28;2094;-75
2021/09/14 10:40:07;;;;;;;;;;;24.70;99.90;;;24.20;55.14;95679.91;10529605;28;1916;-75
2021/09/14 10:45:10;;;;;;;;;;;24.90;99.90;;;23.97;54.48;95685.31;10526067;28;2046;-76
2021/09/14 10:50:13;;;;;;;;;;;25.00;99.90;;;23.81;55.41;95679.13;10530784;28;2047;-76
2021/09/14 10:55:15;;;;;;;;;;;24.80;99.90;;;24.02;54.92;95677.97;10526572;28;2063;-71
2021/09/14 11:00:18;;;;;;;;;;;24.80;99.90;;;24.34;54.42;95676.66;10516872;28;2333;-75
2021/09/14 11:05:21;;;;;;;;;;;25.00;99.90;;;24.43;54.73;95670.91;10518704;28;2047;-77
2021/09/14 11:10:24;;;;;;;;;;;25.10;99.90;;;24.48;54.20;95670.63;10522975;28;2102;-72
2021/09/14 11:15:27;;;;;;;;;;;25.20;99.90;;;24.36;53.80;95662.53;10525777;28;2047;-74
2021/09/14 11:20:30;;;;;;;;;;;25.30;99.90;;;24.60;51.45;95664.94;10535267;28;1802;-75
2021/09/14 11:25:33;;;;;;;;;;;25.30;99.90;;;24.69;52.81;95671.00;10524622;28;2044;-76
2021/09/14 11:30:36;;;;;;;;;;;25.40;99.90;;;24.67;50.69;95667.81;10538353;28;2007;-76
2021/09/14 11:35:40;;;;;;;;;;;25.50;99.90;;;24.79;51.47;95675.88;10528830;28;1786;-76
2021/09/14 11:40:43;;;;;;;;;;;25.50;99.90;;;24.62;51.69;95670.88;10548972;28;2087;-75
2021/09/14 11:45:46;;;;;;;;;;;25.50;99.90;;;24.60;52.15;95664.16;10524990;28;1809;-75
2021/09/14 11:50:48;;;;;;;;;;;25.40;99.90;;;24.80;51.77;95668.41;10511272;28;2102;-74
2021/09/14 11:55:51;;;;;;;;;;;25.50;99.90;;;24.96;52.60;95674.59;10523653;28;2071;-76
2021/09/14 12:00:54;;;;;;;;;;;25.70;99.90;;;25.04;50.49;95661.72;10522790;28;1959;-76
2021/09/14 12:05:57;;;;;;;;;;;25.80;99.90;;;24.78;50.61;95663.28;10523068;28;2106;-76
2021/09/14 12:11:00;;;;;;;;;;;25.80;99.90;;;24.88;49.97;95666.59;10519427;28;2050;-76
2021/09/14 12:16:03;;;;;;;;;;;25.80;99.90;;;25.08;49.60;95659.88;10519349;28;2027;-75
2021/09/14 12:21:06;;;;;;;;;;;25.80;99.90;;;25.00;49.99;95658.13;10517525;28;2027;-76
2021/09/14 12:26:09;;;;;;;;;;;25.90;99.90;;;25.04;49.10;95648.00;10512209;28;1865;-76
2021/09/14 12:31:11;;;;;;;;;;;25.90;99.90;;;25.27;49.56;95636.97;10516203;28;2027;-74
2021/09/14 12:36:14;;;;;;;;;;;25.90;99.90;;;25.44;49.00;95639.16;10515807;28;2079;-73
2021/09/14 12:41:17;;;;;;;;;;;26.10;99.90;;;25.16;49.31;95638.75;10523757;28;2077;-73
2021/09/14 12:46:21;;;;;;;;;;;26.10;99.90;;;25.26;49.35;95636.19;10515282;28;2071;-73
2021/09/14 12:51:24;;;;;;;;;;;26.10;99.90;;;25.53;48.79;95630.63;10521017;28;2208;-73
2021/09/14 12:56:26;;;;;;;;;;;26.20;99.90;;;25.47;48.36;95629.38;10518203;28;2035;-73
2021/09/14 13:01:29;;;;;;;;;;;26.30;99.90;;;25.23;49.64;95628.66;10515592;28;1968;-74
2021/09/14 13:06:32;;;;;;;;;;;26.10;99.90;;;24.80;50.15;95627.97;10514095;28;1856;-73
2021/09/14 13:11:35;;;;;;;;;;;25.90;99.90;;;24.66;50.18;95629.72;10507425;28;2082;-72
2021/09/14 13:16:38;;;;;;;;;;;25.70;99.90;;;24.64;51.02;95627.34;10512044;28;2086;-75
2021/09/14 13:21:41;;;;;;;;;;;25.50;99.90;;;24.55;51.05;95626.78;10522193;28;1965;-75
2021/09/14 13:26:44;;;;;;;;;;;25.40;99.90;;;24.46;51.49;95616.03;10518240;28;2106;-74
2021/09/14 13:31:47;;;;;;;;;;;25.30;99.90;;;24.76;50.83;95610.66;10521042;28;1979;-75
2021/09/14 13:36:49;;;;;;;;;;;25.40;99.90;;;25.00;50.53;95605.88;10534860;28;2031;-74
2021/09/14 13:41:53;;;;;;;;;;;25.60;99.90;;;25.28;49.44;95609.09;10541468;28;1972;-71
2021/09/14 13:46:56;;;;;;;;;;;25.90;99.90;;;25.55;48.61;95604.31;10534515;28;2101;-72
2021/09/14 13:51:59;;;;;;;;;;;26.20;99.90;;;25.62;48.53;95600.88;10538092;28;1890;-72
2021/09/14 13:57:02;;;;;;;;;;;26.30;99.90;;;25.81;48.22;95603.47;10537350;28;2043;-76
2021/09/14 14:02:05;;;;;;;;;;;26.50;99.90;;;25.51;49.22;95594.41;10545775;28;1869;-76
2021/09/14 14:07:07;;;;;;;;;;;26.40;99.90;;;25.63;48.85;95598.91;10522324;28;2112;-76
2021/09/14 14:12:10;;;;;;;;;;;26.40;99.90;;;25.70;48.16;95597.03;10539605;28;2381;-77
2021/09/14 14:17:13;;;;;;;;;;;26.50;99.90;;;26.06;46.97;95591.94;10531983;28;2061;-76
2021/09/14 14:22:16;;;;;;;;;;;26.60;99.90;;;26.00;47.78;95591.50;10527489;28;2020;-77
2021/09/14 14:27:19;;;;;;;;;;;26.70;99.90;;;26.24;47.10;95587.41;10533418;28;2000;-76
2021/09/14 14:32:22;;;;;;;;;;;26.80;99.90;;;26.00;47.60;95588.75;10555970;28;1998;-75
2021/09/14 14:37:25;;;;;;;;;;;26.80;99.90;;;25.89;48.51;95585.06;10558015;28;2114;-75
2021/09/14 14:42:28;;;;;;;;;;;26.70;99.90;;;25.51;48.44;95584.25;10563644;28;2073;-75
2021/09/14 14:47:31;;;;;;;;;;;26.60;99.90;;;25.68;48.81;95582.06;10532704;28;1995;-75
2021/09/14 14:52:34;;;;;;;;;;;26.50;99.90;;;25.65;48.34;95575.34;10547108;28;2245;-75
2021/09/14 14:57:37;;;;;;;;;;;26.50;99.90;;;25.64;48.47;95578.47;10534525;28;2118;-75
2021/09/14 15:02:40;;;;;;;;;;;26.50;99.90;;;25.60;49.10;95572.94;10523579;28;2059;-73
2021/09/14 15:07:43;;;;;;;;;;;26.40;99.90;;;25.46;49.84;95581.00;10529611;28;2152;-77
2021/09/14 15:12:46;;;;;;;;;;;26.30;99.90;;;25.25;50.35;95579.56;10542704;28;2085;-77
2021/09/14 15:17:49;;;;;;;;;;;26.20;99.90;;;25.21;51.28;95573.22;10533442;28;2123;-76
2021/09/14 15:22:52;;;;;;;;;;;26.10;99.90;;;25.16;50.29;95587.31;10512499;28;2128;-75
2021/09/14 15:27:54;;;;;;;;;;;26.00;99.90;;;25.15;50.89;95577.47;10528469;28;2137;-77
2021/09/14 15:32:57;;;;;;;;;;;26.00;99.90;;;25.17;50.79;95580.63;10524493;28;2111;-77
2021/09/14 15:38:00;;;;;;;;;;;25.90;99.90;;;25.00;50.95;95576.44;10530669;28;2158;-78
2021/09/14 15:43:03;;;;;;;;;;;25.90;99.90;;;24.99;52.12;95577.59;10550480;28;2234;-77
2021/09/14 15:48:06;;;;;;;;;;;25.90;99.90;;;24.89;52.58;95580.22;10549390;28;2055;-78
2021/09/14 15:53:09;;;;;;;;;;;25.80;99.90;;;24.92;53.22;95585.75;10537012;28;2008;-77
2021/09/14 15:58:11;;;;;;;;;;;25.70;99.90;;;24.89;53.02;95585.72;10570824;28;2065;-77
2021/09/14 16:03:14;;;;;;;;;;;25.70;99.90;;;24.80;53.58;95583.19;10545097;28;2122;-78
2021/09/14 16:08:17;;;;;;;;;;;25.70;99.90;;;24.83;53.67;95581.69;10542278;28;2206;-78
2021/09/14 16:13:21;;;;;;;;;;;25.70;99.90;;;24.77;54.11;95579.25;10532998;28;2058;-77
2021/09/14 16:18:23;;;;;;;;;;;25.70;99.90;;;24.74;54.81;95585.47;10530588;28;2339;-78
2021/09/14 16:23:26;;;;;;;;;;;25.60;99.90;;;24.85;54.52;95582.88;10529916;28;2138;-78
2021/09/14 16:28:30;;;;;;;;;;;25.50;99.90;;;24.63;55.80;95586.47;10533560;28;2075;-78
2021/09/14 16:33:33;;;;;;;;;;;25.50;99.90;;;24.48;56.67;95583.47;10526812;28;2063;-77
2021/09/14 16:38:38;;;;;;;;;;;25.50;99.90;;;24.36;56.73;95588.38;10535517;28;2072;-78
2021/09/14 16:43:40;;;;;;;;;;;25.30;99.90;;;24.20;57.10;95594.75;10543226;28;2089;-77
2021/09/14 16:48:43;;;;;;;;;;;25.20;99.90;;;24.05;57.99;95592.94;10535405;28;2094;-77
2021/09/14 16:53:46;;;;;;;;;;;25.00;99.90;;;23.94;58.60;95580.94;10541250;28;1918;-77
2021/09/14 16:58:49;;;;;;;;;;;24.90;99.90;;;23.85;59.00;95589.41;10534798;28;2027;-79
2021/09/14 17:03:52;;;;;;;;;;;24.70;99.90;;;23.60;60.13;95599.06;10536809;28;2035;-78
2021/09/14 17:08:55;;;;;;;;;;;24.60;99.90;;;23.35;61.20;95590.31;10540936;28;2112;-77
2021/09/14 17:13:58;;;;;;;;;;;24.40;99.90;;;23.14;62.48;95588.72;10547356;28;1899;-78
2021/09/14 17:19:11;;;;;;;;;;;24.20;99.90;;;22.92;63.24;95594.88;10536103;28;1798;-80
2021/09/14 17:24:18;;;;;;;;;;;24.00;99.90;;;22.64;64.13;95608.66;10528138;28;1829;-80
2021/09/14 17:29:21;;;;;;;;;;;23.70;99.90;;;22.40;65.33;95604.19;10541690;28;2004;-76
2021/09/14 17:34:24;;;;;;;;;;;23.50;99.90;;;22.24;66.36;95622.53;10529859;28;2008;-77
2021/09/14 17:39:27;;;;;;;;;;;23.30;99.90;;;22.00;67.45;95613.28;10543787;28;2075;-77
2021/09/14 17:44:30;;;;;;;;;;;23.20;99.90;;;21.90;68.62;95619.28;10538646;28;1853;-77
2021/09/14 17:49:33;;;;;;;;;;;22.90;99.90;;;21.81;68.88;95626.84;10550069;28;1849;-77
2021/09/14 17:54:36;;;;;;;;;;;22.80;99.90;;;21.61;70.24;95622.38;10526490;28;2035;-77
2021/09/14 17:59:39;;;;;;;;;;;22.70;99.90;;;21.45;71.41;95631.31;10542626;28;2154;-77
2021/09/14 18:04:42;;;;;;;;;;;22.60;99.90;;;21.33;72.35;95633.28;10530284;28;2027;-77
2021/09/14 18:09:45;;;;;;;;;;;22.50;99.90;;;21.17;73.25;95627.69;10527330;28;2146;-78
2021/09/14 18:14:48;;;;;;;;;;;22.30;99.90;;;21.00;74.09;95632.31;10533994;28;2090;-77
2021/09/14 18:19:51;;;;;;;;;;;22.10;99.90;;;20.95;74.33;95632.53;10541119;28;1888;-79
2021/09/14 18:24:54;;;;;;;;;;;22.00;99.90;;;20.82;75.20;95636.41;10538804;28;1857;-79
2021/09/14 18:29:57;;;;;;;;;;;21.90;99.90;;;20.51;76.94;95637.78;10536357;28;1980;-74
2021/09/14 18:35:00;;;;;;;;;;;21.70;99.90;;;20.52;77.47;95644.81;10510236;28;2012;-73
2021/09/14 18:40:04;;;;;;;;;;;21.60;99.90;;;20.45;77.41;95639.13;10513740;28;1857;-76
2021/09/14 18:45:07;;;;;;;;;;;21.60;99.90;;;20.56;77.29;95639.47;10531434;28;1857;-77
2021/09/14 18:50:10;;;;;;;;;;;21.50;99.90;;;20.39;77.24;95645.91;10531005;28;1910;-77
2021/09/14 18:55:13;;;;;;;;;;;21.50;99.90;;;20.36;77.53;95648.50;10529235;28;1920;-76
2021/09/14 19:00:16;;;;;;;;;;;21.40;99.90;;;20.25;78.28;95653.63;10532584;28;2223;-76
2021/09/14 19:05:19;;;;;;;;;;;21.30;99.90;;;20.16;78.46;95653.69;10519029;28;2102;-74
2021/09/14 19:10:22;;;;;;;;;;;21.20;99.90;;;20.03;79.60;95652.09;10523522;28;2090;-72
2021/09/14 19:15:24;;;;;;;;;;;21.10;99.90;;;19.91;80.60;95646.59;10520722;28;1995;-76
2021/09/14 19:20:27;;;;;;;;;;;21.00;99.90;;;19.91;80.80;95646.59;10517546;28;1984;-76
2021/09/14 19:25:30;;;;;;;;;;;20.90;99.90;;;19.81;81.64;95645.09;10521625;28;1974;-76
2021/09/14 19:30:33;;;;;;;;;;;20.90;99.90;;;19.82;81.58;95652.13;10525872;28;1914;-76
2021/09/14 19:35:38;;;;;;;;;;;20.90;99.90;;;19.76;82.30;95655.41;10516377;28;1708;-76
2021/09/14 19:40:41;;;;;;;;;;;20.80;99.90;;;19.71;83.19;95659.13;10519136;28;1857;-75
2021/09/14 19:45:44;;;;;;;;;;;20.70;99.90;;;19.70;83.68;95655.59;10510400;28;2097;-75
2021/09/14 19:50:47;;;;;;;;;;;20.70;99.90;;;19.61;84.49;95644.00;10520464;28;1967;-76
2021/09/14 19:55:50;;;;;;;;;;;20.70;99.90;;;19.58;84.70;95643.84;10516391;28;2110;-76
2021/09/14 20:00:52;;;;;;;;;;;20.60;99.90;;;19.51;85.30;95643.56;10526660;28;1935;-76
2021/09/14 20:05:56;;;;;;;;;;;20.50;99.90;;;19.34;86.46;95655.38;10524137;28;2023;-76
2021/09/14 20:10:58;;;;;;;;;;;20.50;99.90;;;19.14;87.81;95652.31;10516049;28;2039;-75
2021/09/14 20:16:01;;;;;;;;;;;20.30;99.90;;;19.17;88.28;95650.88;10520814;28;1849;-76
2021/09/14 20:21:04;;;;;;;;;;;20.20;99.90;;;19.22;87.87;95647.97;10523597;28;2035;-75
2021/09/14 20:26:07;;;;;;;;;;;20.20;99.90;;;19.13;88.82;95644.47;10533843;28;1817;-76
2021/09/14 20:31:10;;;;;;;;;;;20.20;99.90;;;19.10;88.76;95645.16;10530083;28;2059;-75
2021/09/14 20:36:13;;;;;;;;;;;20.20;99.90;;;19.17;89.00;95648.94;10523002;28;2062;-76
2021/09/14 20:41:15;;;;;;;;;;;20.10;99.90;;;19.11;89.26;95649.47;10542855;28;1885;-76
2021/09/14 20:46:18;;;;;;;;;;;20.10;99.90;;;19.04;89.69;95644.56;10519496;28;2173;-75
2021/09/14 20:51:25;;;;;;;;;;;20.10;99.90;;;18.89;90.90;95642.38;10517559;28;2019;-76
2021/09/14 20:56:28;;;;;;;;;;;20.00;99.90;;;18.88;91.10;95652.47;10517712;28;2023;-76
2021/09/14 21:01:30;;;;;;;;;;;19.90;99.90;;;18.82;90.93;95644.84;10513823;28;2082;-76
2021/09/14 21:06:33;;;;;;;;;;;19.90;99.90;;;18.78;91.21;95639.25;10513748;28;1904;-76
2021/09/14 21:11:36;;;;;;;;;;;19.80;99.90;;;18.62;92.00;95638.19;10520923;28;2050;-79
2021/09/14 21:16:39;;;;;;;;;;;19.70;99.90;;;18.60;92.18;95640.44;10532045;28;1779;-74
2021/09/14 21:21:42;;;;;;;;;;;19.70;99.90;;;18.51;92.57;95639.66;10514905;28;2042;-77
2021/09/14 21:26:45;;;;;;;;;;;19.60;99.90;;;18.45;93.11;95639.09;10512373;28;1762;-75
2021/09/14 21:31:48;;;;;;;;;;;19.50;99.90;;;18.32;93.77;95638.19;10518598;28;2043;-75
2021/09/14 21:36:52;;;;;;;;;;;19.40;99.90;;;18.39;93.23;95639.59;10519214;28;1787;-76
2021/09/14 21:41:55;;;;;;;;;;;19.40;99.90;;;18.33;93.13;95638.97;10515452;28;2034;-75
2021/09/14 21:46:57;;;;;;;;;;;19.40;99.90;;;18.34;93.39;95640.56;10520537;28;2066;-76
2021/09/14 21:52:00;;;;;;;;;;;19.40;99.90;;;18.30;93.71;95639.59;10505916;28;2054;-76
2021/09/14 21:57:03;;;;;;;;;;;19.30;99.90;;;18.31;92.99;95639.28;10515555;28;1988;-75
2021/09/14 22:02:06;;;;;;;;;;;19.30;99.90;;;18.30;93.14;95634.97;10524791;28;1952;-76
2021/09/14 22:07:09;;;;;;;;;;;19.30;99.90;;;18.30;92.48;95640.41;10524159;28;2022;-76
2021/09/14 22:12:12;;;;;;;;;;;19.30;99.90;;;18.27;92.58;95641.06;10532269;28;2091;-75
2021/09/14 22:17:15;;;;;;;;;;;19.30;99.90;;;18.22;92.41;95643.97;10523821;28;2030;-74
2021/09/14 22:22:18;;;;;;;;;;;19.20;99.90;;;18.23;92.70;95647.47;10519677;28;1963;-77
2021/09/14 22:27:21;;;;;;;;;;;19.20;99.90;;;18.25;91.53;95643.28;10522484;28;2035;-76
2021/09/14 22:32:24;;;;;;;;;;;19.20;99.90;;;18.46;nan;95637.16;10524701;28;2007;-76
2021/09/14 22:37:27;;;;;;;;;;;19.30;99.90;;;18.47;90.80;95649.63;10523019;28;2031;-76
2021/09/14 22:42:30;;;;;;;;;;;19.40;99.90;;;18.52;90.48;95652.19;10531937;28;2207;-76
2021/09/14 22:47:33;;;;;;;;;;;19.40;99.90;;;18.56;90.04;95653.09;10528325;28;1888;-73
2021/09/14 22:52:38;;;;;;;;;;;19.40;99.90;;;18.57;89.82;95649.25;10518520;28;1992;-75
2021/09/14 22:57:52;;;;;;;;;;;19.50;99.90;;;18.57;89.66;95643.81;10528231;28;2002;-75
2021/09/14 23:02:55;;;;;;;;;;;19.50;99.90;;;18.59;90.00;95638.84;10522921;28;2265;-75
2021/09/14 23:07:58;;;;;;;;;;;19.50;99.90;;;18.39;90.92;95628.72;10522972;28;1853;-75
2021/09/14 23:13:01;;;;;;;;;;;19.40;99.90;;;18.23;92.30;95628.44;10517567;28;2039;-75
2021/09/14 23:18:04;;;;;;;;;;;19.30;99.90;;;18.22;92.10;95633.06;10524678;28;1832;-75
2021/09/14 23:23:07;;;;;;;;;;;19.20;99.90;;;18.26;91.95;95633.25;10515544;28;2007;-79
2021/09/14 23:28:09;;;;;;;;;;;19.20;99.90;;;18.01;93.42;95616.66;10526594;28;2094;-74
2021/09/14 23:33:12;;;;;;;;;;;19.10;99.90;;;18.01;93.76;95626.75;10526410;28;1890;-76
2021/09/14 23:38:15;;;;;;;;;;;19.00;99.90;;;18.14;92.34;95628.47;10516351;28;2039;-76
2021/09/14 23:43:38;;;;;;;;;;;19.00;99.90;;;18.26;91.67;95620.44;10519996;28;2035;-76
2021/09/14 23:48:41;;;;;;;;;;;19.10;99.90;;;18.17;92.22;95607.97;10525010;28;1931;-76
2021/09/14 23:53:44;;;;;;;;;;;19.10;99.90;;;18.30;91.52;95612.41;10517518;28;2396;-75